createdAt,value
2018-04-26T00:03:28.974Z,9.10
2018-04-26T00:07:32.383Z,7.87
2018-04-26T00:11:35.793Z,5.97
2018-04-26T00:15:39.200Z,8.50
2018-04-26T00:19:42.605Z,6.70
2018-04-26T00:23:46.016Z,5.33
2018-04-26T00:27:49.424Z,5.97
2018-04-26T00:31:52.100Z,9.63
2018-04-26T00:35:55.504Z,5.93
2018-04-26T00:39:58.929Z,10.00
2018-04-26T00:44:01.535Z,8.13
2018-04-26T00:48:04.294Z,8.43
2018-04-26T00:52:06.913Z,10.47
2018-04-26T00:56:09.556Z,7.57
2018-04-26T01:00:12.282Z,7.77
2018-04-26T01:04:14.880Z,11.23
2018-04-26T01:08:17.515Z,9.57
2018-04-26T01:12:20.246Z,8.03
2018-04-26T01:16:22.998Z,13.47
2018-04-26T01:20:25.727Z,10.80
2018-04-26T01:24:28.417Z,9.07
2018-04-26T01:28:31.131Z,10.20
2018-04-26T01:32:33.807Z,8.13
2018-04-26T01:36:48.332Z,10.40
2018-04-26T01:40:51.797Z,8.90
2018-04-26T01:44:54.441Z,10.27
2018-04-26T01:48:57.839Z,7.77
2018-04-26T01:53:01.240Z,8.60
2018-04-26T01:57:04.656Z,11.90
2018-04-26T02:01:08.072Z,9.00
2018-04-26T02:05:10.687Z,11.37
2018-04-26T02:09:13.335Z,13.20
2018-04-26T02:13:16.740Z,11.40
2018-04-26T02:17:20.148Z,15.10
2018-04-26T02:21:23.551Z,12.13
2018-04-26T02:25:26.916Z,11.63
2018-04-26T02:29:29.576Z,20.17
2018-04-26T02:33:32.216Z,14.73
2018-04-26T02:37:34.921Z,13.03
2018-04-26T02:41:38.338Z,8.43
2018-04-26T02:45:41.707Z,16.87
2018-04-26T02:49:44.353Z,13.23
2018-04-26T02:53:47.007Z,15.40
2018-04-26T02:57:50.466Z,17.93
2018-04-26T03:01:53.109Z,16.73
2018-04-26T03:05:56.540Z,12.43
2018-04-26T03:09:59.222Z,10.00
2018-04-26T03:14:01.902Z,11.57
2018-04-26T03:18:05.360Z,9.90
2018-04-26T03:22:08.056Z,10.63
2018-04-26T03:26:10.729Z,15.40
2018-04-26T03:30:13.372Z,15.83
2018-04-26T03:34:16.779Z,14.67
2018-04-26T03:38:20.183Z,13.50
2018-04-26T03:42:23.653Z,12.47
2018-04-26T03:46:26.269Z,8.30
2018-04-26T03:50:29.671Z,10.67
2018-04-26T03:54:32.345Z,15.30
2018-04-26T03:58:34.988Z,14.70
2018-04-26T04:02:49.531Z,13.07
2018-04-26T04:06:52.958Z,18.67
2018-04-26T04:10:55.630Z,16.10
2018-04-26T04:14:59.036Z,14.47
2018-04-26T04:19:02.445Z,11.93
2018-04-26T04:23:05.144Z,8.77
2018-04-26T04:27:07.776Z,6.10
2018-04-26T04:31:10.383Z,6.63
2018-04-26T04:35:13.102Z,6.17
2018-04-26T04:39:15.762Z,4.00
2018-04-26T04:43:18.408Z,5.67
2018-04-26T04:47:21.044Z,1.47
2018-04-26T04:51:23.679Z,1.40
2018-04-26T04:55:26.380Z,4.67
2018-04-26T05:04:42.147Z,3.07
2018-04-26T05:08:46.153Z,1.60
2018-04-26T05:12:48.793Z,2.13
2018-04-26T05:16:51.388Z,0.83
2018-04-26T05:20:54.091Z,1.10
2018-04-26T05:24:56.736Z,1.70
2018-04-26T05:29:00.154Z,3.90
2018-04-26T05:33:02.795Z,0.97
2018-04-26T05:37:05.396Z,2.57
2018-04-26T05:41:08.032Z,3.40
2018-04-26T05:45:10.724Z,1.43
2018-04-26T05:49:13.369Z,1.23
2018-04-26T05:53:16.012Z,1.83
2018-04-26T05:57:19.379Z,4.20
2018-04-26T06:01:22.788Z,1.83
2018-04-26T06:05:26.206Z,1.50
2018-04-26T06:09:28.896Z,2.70
2018-04-26T06:13:31.537Z,2.70
2018-04-26T06:17:34.133Z,1.80
2018-04-26T06:21:36.771Z,3.13
2018-04-26T06:25:39.407Z,2.07
2018-04-26T06:29:42.048Z,2.37
2018-04-26T06:33:44.691Z,2.47
2018-04-26T06:37:47.292Z,11.50
2018-04-26T06:41:50.696Z,6.07
2018-04-26T06:45:53.386Z,4.30
2018-04-26T06:49:56.812Z,4.80
2018-04-26T06:53:59.449Z,3.87
2018-04-26T06:58:02.052Z,7.13
2018-04-26T07:02:04.807Z,2.70
2018-04-26T07:06:07.489Z,7.73
2018-04-26T07:10:10.128Z,10.30
2018-04-26T07:14:13.536Z,5.77
2018-04-26T07:18:16.911Z,5.57
2018-04-26T07:22:19.553Z,5.27
2018-04-26T07:26:22.194Z,7.70
2018-04-26T07:30:25.625Z,6.87
2018-04-26T07:34:29.031Z,10.80
2018-04-26T07:38:32.403Z,7.63
2018-04-26T07:42:35.047Z,5.43
2018-04-26T07:46:37.679Z,7.87
2018-04-26T07:50:40.323Z,8.10
2018-04-26T07:54:42.955Z,9.90
2018-04-26T07:58:45.556Z,8.77
2018-04-26T08:02:48.194Z,8.73
2018-04-26T08:06:50.893Z,5.70
2018-04-26T08:10:53.553Z,4.90
2018-04-26T08:14:56.988Z,5.03
2018-04-26T08:18:59.614Z,6.07
2018-04-26T08:23:02.331Z,10.90
2018-04-26T08:27:05.853Z,6.70
2018-04-26T08:31:08.501Z,7.30
2018-04-26T08:35:11.144Z,7.67
2018-04-26T08:39:13.804Z,5.70
2018-04-26T08:43:17.251Z,8.03
2018-04-26T08:47:19.894Z,7.73
2018-04-26T08:51:22.536Z,6.87
2018-04-26T08:55:25.191Z,5.10
2018-04-26T08:59:27.807Z,9.07
2018-04-26T09:03:30.448Z,5.40
2018-04-26T09:07:33.851Z,4.97
2018-04-26T09:11:37.255Z,2.27
2018-04-26T09:15:39.937Z,4.10
2018-04-26T09:19:43.311Z,5.43
2018-04-26T09:23:45.963Z,4.60
2018-04-26T09:27:48.605Z,2.53
2018-04-26T09:31:51.256Z,5.47
2018-04-26T09:35:54.008Z,3.30
2018-04-26T09:39:56.595Z,3.87
2018-04-26T09:44:00.000Z,8.17
2018-04-26T09:48:03.409Z,6.10
2018-04-26T09:52:06.816Z,5.27
2018-04-26T09:56:10.219Z,8.10
2018-04-26T10:00:13.701Z,7.13
2018-04-26T10:04:16.307Z,8.80
2018-04-26T10:08:18.953Z,4.93
2018-04-26T10:12:21.592Z,8.73
2018-04-26T10:16:25.058Z,7.03
2018-04-26T10:20:27.712Z,5.23
2018-04-26T10:24:30.397Z,9.03
2018-04-26T10:28:33.816Z,7.03
2018-04-26T10:32:36.460Z,11.13
2018-04-26T10:36:39.093Z,5.40
2018-04-26T10:40:41.739Z,6.40
2018-04-26T10:44:44.342Z,1.67
2018-04-26T10:48:47.752Z,1.43
2018-04-26T10:52:51.161Z,1.53
2018-04-26T10:56:53.808Z,1.50
2018-04-26T11:00:56.503Z,1.10
2018-04-26T11:04:59.108Z,1.50
2018-04-26T11:09:02.522Z,1.53
2018-04-26T11:13:05.988Z,1.27
2018-04-26T11:17:08.700Z,5.07
2018-04-26T11:21:11.316Z,3.87
2018-04-26T11:25:14.679Z,2.60
2018-04-26T11:29:17.336Z,1.70
2018-04-26T11:33:19.991Z,3.20
2018-04-26T11:37:23.416Z,4.97
2018-04-26T11:41:26.053Z,5.03
2018-04-26T11:45:28.659Z,5.17
2018-04-26T11:49:31.313Z,4.53
2018-04-26T11:53:33.956Z,5.40
2018-04-26T11:57:37.376Z,3.33
2018-04-26T12:01:40.074Z,5.27
2018-04-26T12:05:42.680Z,6.83
2018-04-26T12:09:45.316Z,4.90
2018-04-26T12:13:48.771Z,5.20
2018-04-26T12:17:51.416Z,4.90
2018-04-26T12:21:54.148Z,4.00
2018-04-26T12:25:56.877Z,5.37
2018-04-26T12:29:59.525Z,4.30
2018-04-26T12:34:02.203Z,5.97
2018-04-26T12:38:04.848Z,3.20
2018-04-26T12:42:07.532Z,7.50
2018-04-26T12:46:10.129Z,7.63
2018-04-26T12:50:13.595Z,4.07
2018-04-26T12:54:16.242Z,7.87
2018-04-26T12:58:19.662Z,4.37
2018-04-26T13:02:23.148Z,5.33
2018-04-26T13:06:26.522Z,6.27
2018-04-26T13:10:29.184Z,7.23
2018-04-26T13:14:31.860Z,8.77
2018-04-26T13:18:34.652Z,6.97
2018-04-26T13:22:37.313Z,10.83
2018-04-26T13:26:40.009Z,8.60
2018-04-26T13:30:42.669Z,7.23
2018-04-26T13:34:45.327Z,4.03
2018-04-26T13:38:47.996Z,6.33
2018-04-26T13:42:50.672Z,9.33
2018-04-26T13:46:53.268Z,4.27
2018-04-26T13:50:55.913Z,3.60
2018-04-26T13:54:58.640Z,9.03
2018-04-26T13:59:01.278Z,2.90
2018-04-26T14:03:03.928Z,10.13
2018-04-26T14:07:06.533Z,5.23
2018-04-26T14:11:09.179Z,3.03
2018-04-26T14:15:11.846Z,4.37
2018-04-26T14:19:14.497Z,6.40
2018-04-26T14:23:17.179Z,7.33
2018-04-26T14:27:19.825Z,5.17
2018-04-26T14:31:23.246Z,3.30
2018-04-26T14:35:25.911Z,5.57
2018-04-26T14:39:29.327Z,5.57
2018-04-26T14:43:32.826Z,6.37
2018-04-26T14:47:35.374Z,5.70
2018-04-26T14:51:38.025Z,3.53
2018-04-26T14:55:40.674Z,3.60
2018-04-26T14:59:43.320Z,3.87
2018-04-26T15:03:45.959Z,2.17
2018-04-26T15:07:48.566Z,1.73
2018-04-26T15:11:51.976Z,3.57
2018-04-26T15:15:55.384Z,0.53
2018-04-26T15:19:58.798Z,1.93
2018-04-26T15:24:01.441Z,2.57
2018-04-26T15:28:04.048Z,1.10
2018-04-26T15:32:06.703Z,3.00
2018-04-26T15:36:09.357Z,2.53
2018-04-26T15:40:12.008Z,5.60
2018-04-26T15:44:14.731Z,3.17
2018-04-26T15:48:17.335Z,4.33
2018-04-26T15:52:32.556Z,2.40
2018-04-26T15:56:54.090Z,3.70
2018-04-26T16:01:10.049Z,6.33
2018-04-26T16:10:04.461Z,6.07
2018-04-26T16:14:24.915Z,6.73
2018-04-26T16:18:43.424Z,5.40
2018-04-26T16:23:03.663Z,10.60
2018-04-26T16:32:18.036Z,4.40
2018-04-26T16:40:57.475Z,4.47
2018-04-26T16:45:00.948Z,2.97
2018-04-26T16:49:03.556Z,2.03
2018-04-26T16:53:06.204Z,5.17
2018-04-26T16:57:08.936Z,2.83
2018-04-26T17:01:11.579Z,3.30
2018-04-26T17:05:14.220Z,3.50
2018-04-26T17:09:16.816Z,5.17
2018-04-26T17:13:20.224Z,2.37
2018-04-26T17:17:23.693Z,3.63
2018-04-26T17:21:26.393Z,4.00
2018-04-26T17:25:29.035Z,3.97
2018-04-26T17:29:31.713Z,3.23
2018-04-26T17:33:34.355Z,2.67
2018-04-26T17:37:37.007Z,2.93
2018-04-26T17:41:39.651Z,6.63
2018-04-26T17:45:42.445Z,4.73
2018-04-26T17:49:44.985Z,7.33
2018-04-26T17:53:47.623Z,4.23
2018-04-26T17:57:51.038Z,2.77
2018-04-26T18:01:54.448Z,2.50
2018-04-26T18:05:57.865Z,6.53
2018-04-26T18:10:00.470Z,12.20
2018-04-26T18:14:03.113Z,4.30
2018-04-26T18:18:06.521Z,3.53
2018-04-26T18:22:09.925Z,2.53
2018-04-26T18:26:13.366Z,5.13
2018-04-26T18:30:15.972Z,6.30
2018-04-26T18:34:18.616Z,6.00
2018-04-26T18:38:22.027Z,2.43
2018-04-26T18:42:25.441Z,5.40
2018-04-26T18:46:28.087Z,3.47
2018-04-26T18:50:30.748Z,3.60
2018-04-26T18:54:33.444Z,2.23
2018-04-26T18:58:36.097Z,9.17
2018-04-26T19:02:38.742Z,2.43
2018-04-26T19:06:41.391Z,5.43
2018-04-26T19:10:43.992Z,2.33
2018-04-26T19:14:46.644Z,4.63
2018-04-26T19:18:50.143Z,43.60
2018-04-26T19:22:53.564Z,18.37
2018-04-26T19:26:56.211Z,8.97
2018-04-26T19:30:58.817Z,9.83
2018-04-26T19:35:01.516Z,14.33
2018-04-26T19:39:05.831Z,8.30
2018-04-26T19:43:08.484Z,4.03
2018-04-26T19:47:11.189Z,4.10
2018-04-26T19:51:13.792Z,3.03
2018-04-26T19:55:16.450Z,4.53
2018-04-26T19:59:19.096Z,4.60
2018-04-26T20:03:21.755Z,5.00
2018-04-26T20:07:25.188Z,2.60
2018-04-26T20:11:28.560Z,5.57
2018-04-26T20:15:31.211Z,5.87
2018-04-26T20:19:33.853Z,6.90
2018-04-26T20:23:36.494Z,3.87
2018-04-26T20:27:39.201Z,7.87
2018-04-26T20:31:41.864Z,5.40
2018-04-26T20:35:44.504Z,6.30
2018-04-26T20:39:47.204Z,6.50
2018-04-26T20:43:50.623Z,6.33
2018-04-26T20:47:53.260Z,7.50
2018-04-26T20:51:55.860Z,7.43
2018-04-26T20:55:58.500Z,8.90
2018-04-26T21:00:01.152Z,9.33
2018-04-26T21:04:03.798Z,10.13
2018-04-26T21:08:06.387Z,11.07
2018-04-26T21:12:09.023Z,8.80
2018-04-26T21:16:12.487Z,14.87
2018-04-26T21:20:15.210Z,11.27
2018-04-26T21:24:17.872Z,13.27
2018-04-26T21:28:20.476Z,11.30
2018-04-26T21:32:23.112Z,10.90
2018-04-26T21:36:25.763Z,11.90
2018-04-26T21:40:28.488Z,10.87
2018-04-26T21:44:31.165Z,11.57
2018-04-26T21:48:34.540Z,10.43
2018-04-26T21:52:42.785Z,13.67
2018-04-26T21:56:51.825Z,13.80
2018-04-26T22:01:01.088Z,10.80
2018-04-26T22:05:03.772Z,11.93
2018-04-26T22:09:06.381Z,11.87
2018-04-26T22:13:09.019Z,12.73
2018-04-26T22:17:12.436Z,12.10
2018-04-26T22:21:15.851Z,13.87
2018-04-26T22:25:18.456Z,12.23
2018-04-26T22:29:21.113Z,13.33
2018-04-26T22:33:24.523Z,12.27
2018-04-26T22:37:27.984Z,11.87
2018-04-26T22:41:30.683Z,12.17
2018-04-26T22:45:33.299Z,15.77
2018-04-26T22:49:35.976Z,14.73
2018-04-26T22:53:38.623Z,12.07
2018-04-26T22:57:41.328Z,11.73
2018-04-26T23:01:43.937Z,10.63
2018-04-26T23:05:46.585Z,16.50
2018-04-26T23:09:49.235Z,12.97
2018-04-26T23:13:52.661Z,13.73
2018-04-26T23:17:55.308Z,13.93
2018-04-26T23:21:58.707Z,15.00
2018-04-26T23:26:01.407Z,15.93
2018-04-26T23:30:04.062Z,14.60
2018-04-26T23:34:06.704Z,16.20
2018-04-26T23:38:10.128Z,14.13
2018-04-26T23:42:12.733Z,18.20
2018-04-26T23:46:15.433Z,16.87
2018-04-26T23:50:18.072Z,15.47
2018-04-26T23:54:21.496Z,14.03
2018-04-26T23:58:24.141Z,15.03
